FIN9801 EFHK-ENBR
Flight info
| Callsign | FIN9801 |
|---|---|
| Flight time | 1h 45m |
| Altitude | 38000 |
| Route | ADIVO Y365 POGOK DCT PESUR |
| Aircraft | A320/M-SDE3FGHIRWY/LB1 |
Departure
| Time | 2026-05-05 17:42 |
|---|---|
| Airport | Helsinki Vantaa Airport (EFHK) |
Arrival
| Time | 2026-05-05 19:28 |
|---|---|
| Airport | Bergen Airport, Flesland (ENBR) |
| Time | Latitude | Longitude | Altitude | Speed | Heading |
|---|---|---|---|---|---|
| 2026-05-05 17:18 | 60.31747 | 24.97116 | 137 ft | 0 kts | 243° |
| 2026-05-05 17:32 | 60.31750 | 24.97128 | 137 ft | 2 kts | 235° |
| 2026-05-05 17:32 | 60.31758 | 24.97154 | 136 ft | 2 kts | 245° |
| 2026-05-05 17:32 | 60.31764 | 24.97181 | 136 ft | 2 kts | 242° |
| 2026-05-05 17:32 | 60.31771 | 24.97208 | 135 ft | 2 kts | 242° |
| 2026-05-05 17:33 | 60.31773 | 24.97237 | 135 ft | 2 kts | 294° |
| 2026-05-05 17:33 | 60.31766 | 24.97256 | 135 ft | 0 kts | 328° |
| 2026-05-05 17:33 | 60.31759 | 24.97262 | 135 ft | 1 kts | 333° |
| 2026-05-05 17:33 | 60.31759 | 24.97263 | 135 ft | 0 kts | 333° |
| 2026-05-05 17:35 | 60.31762 | 24.97260 | 134 ft | 1 kts | 333° |
| 2026-05-05 17:35 | 60.31780 | 24.97240 | 134 ft | 4 kts | 333° |
| 2026-05-05 17:35 | 60.31815 | 24.97203 | 135 ft | 7 kts | 332° |
| 2026-05-05 17:36 | 60.31865 | 24.97150 | 136 ft | 9 kts | 332° |
| 2026-05-05 17:36 | 60.31928 | 24.97085 | 137 ft | 11 kts | 332° |
| 2026-05-05 17:36 | 60.31996 | 24.97014 | 138 ft | 11 kts | 333° |
| 2026-05-05 17:36 | 60.32063 | 24.96944 | 140 ft | 11 kts | 331° |
| 2026-05-05 17:37 | 60.32132 | 24.96866 | 141 ft | 12 kts | 330° |
| 2026-05-05 17:37 | 60.32182 | 24.96806 | 142 ft | 13 kts | 329° |
| 2026-05-05 17:37 | 60.32300 | 24.96668 | 145 ft | 16 kts | 329° |
| 2026-05-05 17:37 | 60.32408 | 24.96542 | 147 ft | 19 kts | 330° |
| 2026-05-05 17:38 | 60.32533 | 24.96395 | 147 ft | 22 kts | 329° |
| 2026-05-05 17:38 | 60.32677 | 24.96227 | 147 ft | 25 kts | 330° |
| 2026-05-05 17:38 | 60.32828 | 24.96052 | 149 ft | 25 kts | 330° |
| 2026-05-05 17:38 | 60.32973 | 24.95883 | 151 ft | 23 kts | 330° |
| 2026-05-05 17:39 | 60.33099 | 24.95715 | 156 ft | 21 kts | 318° |
| 2026-05-05 17:39 | 60.33189 | 24.95545 | 160 ft | 13 kts | 311° |
| 2026-05-05 17:39 | 60.33198 | 24.95379 | 162 ft | 13 kts | 241° |
| 2026-05-05 17:39 | 60.33134 | 24.95226 | 161 ft | 15 kts | 232° |
| 2026-05-05 17:40 | 60.33109 | 24.95011 | 161 ft | 17 kts | 272° |
| 2026-05-05 17:40 | 60.33114 | 24.94767 | 160 ft | 18 kts | 272° |
| 2026-05-05 17:40 | 60.33119 | 24.94524 | 160 ft | 12 kts | 272° |
| 2026-05-05 17:40 | 60.33106 | 24.94376 | 159 ft | 9 kts | 238° |
| 2026-05-05 17:41 | 60.33088 | 24.94332 | 159 ft | 0 kts | 227° |
| 2026-05-05 17:42 | 60.33060 | 24.94271 | 158 ft | 29 kts | 228° |
| 2026-05-05 17:42 | 60.32738 | 24.93563 | 150 ft | 105 kts | 227° |
| 2026-05-05 17:42 | 60.32111 | 24.92164 | 226 ft | 155 kts | 230° |
| 2026-05-05 17:42 | 60.31402 | 24.90590 | 942 ft | 155 kts | 230° |
| 2026-05-05 17:43 | 60.30669 | 24.89031 | 1641 ft | 161 kts | 236° |
| 2026-05-05 17:43 | 60.30096 | 24.87069 | 2211 ft | 171 kts | 253° |
| 2026-05-05 17:43 | 60.30097 | 24.84678 | 2739 ft | 181 kts | 291° |
| 2026-05-05 17:43 | 60.30621 | 24.82253 | 3241 ft | 202 kts | 297° |
| 2026-05-05 17:44 | 60.31250 | 24.79599 | 3844 ft | 221 kts | 294° |
| 2026-05-05 17:44 | 60.31657 | 24.76512 | 4487 ft | 241 kts | 279° |
| 2026-05-05 17:44 | 60.31714 | 24.73070 | 5200 ft | 255 kts | 270° |
| 2026-05-05 17:44 | 60.31714 | 24.69500 | 6073 ft | 261 kts | 277° |
| 2026-05-05 17:45 | 60.31931 | 24.65919 | 7101 ft | 262 kts | 278° |
| 2026-05-05 17:45 | 60.32180 | 24.62316 | 8116 ft | 262 kts | 279° |
| 2026-05-05 17:45 | 60.32441 | 24.58714 | 9071 ft | 264 kts | 279° |
| 2026-05-05 17:45 | 60.32712 | 24.55091 | 10084 ft | 265 kts | 279° |
| 2026-05-05 17:46 | 60.32978 | 24.51384 | 10797 ft | 274 kts | 277° |
| 2026-05-05 17:46 | 60.33221 | 24.47584 | 11714 ft | 276 kts | 276° |
| 2026-05-05 17:46 | 60.33460 | 24.43756 | 12638 ft | 275 kts | 275° |
| 2026-05-05 17:46 | 60.33694 | 24.39987 | 13566 ft | 274 kts | 275° |
| 2026-05-05 17:47 | 60.33929 | 24.36183 | 14436 ft | 273 kts | 274° |
| 2026-05-05 17:47 | 60.34157 | 24.32425 | 15283 ft | 272 kts | 272° |
| 2026-05-05 17:47 | 60.34384 | 24.28668 | 16064 ft | 272 kts | 272° |
| 2026-05-05 17:47 | 60.34612 | 24.24905 | 16822 ft | 273 kts | 272° |
| 2026-05-05 17:48 | 60.34842 | 24.21103 | 17524 ft | 275 kts | 271° |
| 2026-05-05 17:48 | 60.35073 | 24.17268 | 18271 ft | 275 kts | 271° |
| 2026-05-05 17:48 | 60.35301 | 24.13452 | 18971 ft | 275 kts | 271° |
| 2026-05-05 17:48 | 60.35527 | 24.09614 | 19647 ft | 277 kts | 271° |
| 2026-05-05 17:49 | 60.35754 | 24.05774 | 20259 ft | 280 kts | 271° |
| 2026-05-05 17:49 | 60.35981 | 24.01892 | 20869 ft | 282 kts | 271° |
| 2026-05-05 17:49 | 60.36212 | 23.97961 | 21468 ft | 284 kts | 270° |
| 2026-05-05 17:49 | 60.36444 | 23.94009 | 22034 ft | 287 kts | 271° |
| 2026-05-05 17:50 | 60.36677 | 23.89990 | 22581 ft | 290 kts | 270° |
| 2026-05-05 17:50 | 60.36911 | 23.85948 | 23128 ft | 293 kts | 271° |
| 2026-05-05 17:50 | 60.37148 | 23.81830 | 23677 ft | 295 kts | 271° |
| 2026-05-05 17:50 | 60.37384 | 23.77716 | 24188 ft | 298 kts | 271° |
| 2026-05-05 17:51 | 60.37620 | 23.73561 | 24683 ft | 301 kts | 270° |
| 2026-05-05 17:51 | 60.37858 | 23.69361 | 25185 ft | 303 kts | 271° |
| 2026-05-05 17:51 | 60.38101 | 23.65100 | 25675 ft | 306 kts | 271° |
| 2026-05-05 17:51 | 60.38339 | 23.60827 | 26152 ft | 308 kts | 270° |
| 2026-05-05 17:52 | 60.38578 | 23.56544 | 26626 ft | 310 kts | 270° |
| 2026-05-05 17:52 | 60.38819 | 23.52182 | 27054 ft | 314 kts | 271° |
| 2026-05-05 17:52 | 60.39059 | 23.47813 | 27489 ft | 316 kts | 271° |
| 2026-05-05 17:52 | 60.39300 | 23.43406 | 27929 ft | 318 kts | 271° |
| 2026-05-05 17:53 | 60.39542 | 23.38953 | 28361 ft | 320 kts | 271° |
| 2026-05-05 17:53 | 60.39787 | 23.34448 | 28753 ft | 323 kts | 270° |
| 2026-05-05 17:53 | 60.40030 | 23.29919 | 29179 ft | 325 kts | 270° |
| 2026-05-05 17:53 | 60.40271 | 23.25384 | 29562 ft | 327 kts | 270° |
| 2026-05-05 17:54 | 60.40515 | 23.20783 | 29953 ft | 329 kts | 270° |
| 2026-05-05 17:54 | 60.40756 | 23.16197 | 30326 ft | 332 kts | 271° |
| 2026-05-05 17:54 | 60.41000 | 23.11575 | 30656 ft | 335 kts | 270° |
| 2026-05-05 17:54 | 60.41243 | 23.06888 | 30974 ft | 337 kts | 271° |
| 2026-05-05 17:55 | 60.41485 | 23.02179 | 31295 ft | 339 kts | 271° |
| 2026-05-05 17:55 | 60.41731 | 22.97409 | 31605 ft | 342 kts | 271° |
| 2026-05-05 17:55 | 60.41975 | 22.92613 | 31884 ft | 345 kts | 271° |
| 2026-05-05 17:55 | 60.42220 | 22.87754 | 32167 ft | 347 kts | 271° |
| 2026-05-05 17:56 | 60.42465 | 22.82904 | 32451 ft | 349 kts | 271° |
| 2026-05-05 17:56 | 60.42708 | 22.78012 | 32670 ft | 352 kts | 271° |
| 2026-05-05 17:56 | 60.42950 | 22.73102 | 32889 ft | 354 kts | 271° |
| 2026-05-05 17:56 | 60.43193 | 22.68161 | 33098 ft | 356 kts | 271° |
| 2026-05-05 17:57 | 60.43435 | 22.63179 | 33298 ft | 359 kts | 271° |
| 2026-05-05 17:57 | 60.43677 | 22.58181 | 33491 ft | 360 kts | 271° |
| 2026-05-05 17:57 | 60.43919 | 22.53110 | 33712 ft | 362 kts | 271° |
| 2026-05-05 17:57 | 60.44160 | 22.48054 | 33902 ft | 364 kts | 272° |
| 2026-05-05 17:58 | 60.44400 | 22.42965 | 34086 ft | 366 kts | 272° |
| 2026-05-05 17:58 | 60.44637 | 22.37850 | 34223 ft | 368 kts | 272° |
| 2026-05-05 17:58 | 60.44876 | 22.32692 | 34406 ft | 370 kts | 271° |
| 2026-05-05 17:58 | 60.45113 | 22.27532 | 34584 ft | 371 kts | 271° |
| 2026-05-05 17:59 | 60.45349 | 22.22353 | 34699 ft | 373 kts | 271° |
| 2026-05-05 17:59 | 60.45589 | 22.17066 | 34867 ft | 376 kts | 271° |
| 2026-05-05 17:59 | 60.45828 | 22.11753 | 35023 ft | 377 kts | 271° |
| 2026-05-05 17:59 | 60.46062 | 22.06461 | 35205 ft | 378 kts | 271° |
| 2026-05-05 18:00 | 60.46297 | 22.01146 | 35364 ft | 379 kts | 271° |
| 2026-05-05 18:00 | 60.46529 | 21.95819 | 35537 ft | 380 kts | 271° |
| 2026-05-05 18:00 | 60.46760 | 21.90455 | 35702 ft | 381 kts | 271° |
| 2026-05-05 18:00 | 60.46990 | 21.85103 | 35842 ft | 382 kts | 271° |
| 2026-05-05 18:01 | 60.47218 | 21.79734 | 35995 ft | 384 kts | 271° |
| 2026-05-05 18:01 | 60.47442 | 21.74375 | 36097 ft | 385 kts | 272° |
| 2026-05-05 18:01 | 60.47665 | 21.68990 | 36244 ft | 387 kts | 271° |
| 2026-05-05 18:01 | 60.47887 | 21.63581 | 36345 ft | 389 kts | 272° |
| 2026-05-05 18:02 | 60.48108 | 21.58140 | 36441 ft | 391 kts | 272° |
| 2026-05-05 18:02 | 60.48331 | 21.52639 | 36572 ft | 392 kts | 272° |
| 2026-05-05 18:02 | 60.48552 | 21.47102 | 36698 ft | 392 kts | 272° |
| 2026-05-05 18:03 | 60.48986 | 21.35992 | 36864 ft | 396 kts | 272° |
| 2026-05-05 18:03 | 60.49203 | 21.30399 | 36986 ft | 397 kts | 271° |
| 2026-05-05 18:03 | 60.49415 | 21.24812 | 37096 ft | 398 kts | 271° |
| 2026-05-05 18:04 | 60.49835 | 21.13613 | 37284 ft | 401 kts | 271° |
| 2026-05-05 18:04 | 60.50251 | 21.02297 | 37473 ft | 403 kts | 271° |
| 2026-05-05 18:05 | 60.50660 | 20.90881 | 37658 ft | 405 kts | 271° |
| 2026-05-05 18:05 | 60.51060 | 20.79453 | 37787 ft | 408 kts | 272° |
| 2026-05-05 18:06 | 60.51454 | 20.67944 | 37819 ft | 410 kts | 271° |
| 2026-05-05 18:06 | 60.51836 | 20.56413 | 37824 ft | 410 kts | 272° |
| 2026-05-05 18:07 | 60.52209 | 20.44926 | 37825 ft | 411 kts | 272° |
| 2026-05-05 18:07 | 60.52571 | 20.33418 | 37823 ft | 412 kts | 271° |
| 2026-05-05 18:08 | 60.52924 | 20.21845 | 37818 ft | 412 kts | 271° |
| 2026-05-05 18:08 | 60.53267 | 20.10320 | 37823 ft | 412 kts | 271° |
| 2026-05-05 18:09 | 60.53602 | 19.98791 | 37825 ft | 412 kts | 271° |
| 2026-05-05 18:09 | 60.53925 | 19.87242 | 37813 ft | 412 kts | 271° |
| 2026-05-05 18:10 | 60.54240 | 19.75608 | 37815 ft | 412 kts | 271° |
| 2026-05-05 18:10 | 60.54546 | 19.64014 | 37815 ft | 412 kts | 271° |
| 2026-05-05 18:11 | 60.54841 | 19.52384 | 37821 ft | 412 kts | 271° |
| 2026-05-05 18:11 | 60.55127 | 19.40724 | 37809 ft | 413 kts | 271° |
| 2026-05-05 18:12 | 60.55401 | 19.29089 | 37812 ft | 413 kts | 270° |
| 2026-05-05 18:12 | 60.55667 | 19.17409 | 37805 ft | 413 kts | 270° |
| 2026-05-05 18:13 | 60.55922 | 19.05742 | 37809 ft | 413 kts | 270° |
| 2026-05-05 18:13 | 60.56168 | 18.94001 | 37786 ft | 413 kts | 270° |
| 2026-05-05 18:14 | 60.56404 | 18.82318 | 37792 ft | 413 kts | 270° |
| 2026-05-05 18:14 | 60.56631 | 18.70634 | 37787 ft | 414 kts | 270° |
| 2026-05-05 18:15 | 60.56848 | 18.58901 | 37792 ft | 414 kts | 270° |
| 2026-05-05 18:15 | 60.57051 | 18.47259 | 37802 ft | 414 kts | 270° |
| 2026-05-05 18:16 | 60.57244 | 18.35613 | 37787 ft | 414 kts | 270° |
| 2026-05-05 18:16 | 60.57426 | 18.23965 | 37808 ft | 414 kts | 270° |
| 2026-05-05 18:17 | 60.57601 | 18.12297 | 37794 ft | 415 kts | 270° |
| 2026-05-05 18:17 | 60.57766 | 18.00606 | 37792 ft | 417 kts | 270° |
| 2026-05-05 18:18 | 60.57920 | 17.88836 | 37799 ft | 417 kts | 270° |
| 2026-05-05 18:18 | 60.58064 | 17.77048 | 37805 ft | 417 kts | 270° |
| 2026-05-05 18:19 | 60.58201 | 17.65306 | 37793 ft | 417 kts | 270° |
| 2026-05-05 18:19 | 60.58324 | 17.53538 | 37803 ft | 419 kts | 270° |
| 2026-05-05 18:20 | 60.58437 | 17.41720 | 37788 ft | 418 kts | 270° |
| 2026-05-05 18:20 | 60.58539 | 17.29859 | 37797 ft | 419 kts | 269° |
| 2026-05-05 18:21 | 60.58633 | 17.18060 | 37788 ft | 420 kts | 269° |
| 2026-05-05 18:21 | 60.58714 | 17.06208 | 37794 ft | 420 kts | 269° |
| 2026-05-05 18:22 | 60.58789 | 16.94295 | 37791 ft | 419 kts | 269° |
| 2026-05-05 18:22 | 60.58848 | 16.82448 | 37807 ft | 419 kts | 269° |
| 2026-05-05 18:23 | 60.58900 | 16.70635 | 37815 ft | 418 kts | 269° |
| 2026-05-05 18:23 | 60.58941 | 16.58852 | 37817 ft | 418 kts | 269° |
| 2026-05-05 18:24 | 60.58970 | 16.47029 | 37810 ft | 418 kts | 269° |
| 2026-05-05 18:24 | 60.58989 | 16.35220 | 37811 ft | 417 kts | 270° |
| 2026-05-05 18:25 | 60.58998 | 16.23436 | 37813 ft | 416 kts | 269° |
| 2026-05-05 18:25 | 60.58998 | 16.11656 | 37823 ft | 416 kts | 269° |
| 2026-05-05 18:26 | 60.58987 | 15.99884 | 37824 ft | 415 kts | 269° |
| 2026-05-05 18:26 | 60.58965 | 15.88158 | 37825 ft | 415 kts | 269° |
| 2026-05-05 18:27 | 60.58934 | 15.76435 | 37822 ft | 415 kts | 269° |
| 2026-05-05 18:27 | 60.58889 | 15.64699 | 37832 ft | 414 kts | 269° |
| 2026-05-05 18:28 | 60.58810 | 15.47128 | 37829 ft | 414 kts | 269° |
| 2026-05-05 18:28 | 60.58742 | 15.35460 | 37825 ft | 414 kts | 269° |
| 2026-05-05 18:29 | 60.58664 | 15.23728 | 37822 ft | 414 kts | 268° |
| 2026-05-05 18:29 | 60.58574 | 15.12064 | 37824 ft | 413 kts | 268° |
| 2026-05-05 18:30 | 60.58476 | 15.00378 | 37824 ft | 414 kts | 268° |
| 2026-05-05 18:30 | 60.58369 | 14.88634 | 37825 ft | 413 kts | 268° |
| 2026-05-05 18:31 | 60.58250 | 14.76975 | 37823 ft | 413 kts | 268° |
| 2026-05-05 18:31 | 60.58122 | 14.65303 | 37812 ft | 413 kts | 268° |
| 2026-05-05 18:32 | 60.57983 | 14.53612 | 37805 ft | 414 kts | 268° |
| 2026-05-05 18:32 | 60.57834 | 14.41895 | 37793 ft | 413 kts | 268° |
| 2026-05-05 18:33 | 60.57673 | 14.30225 | 37795 ft | 413 kts | 268° |
| 2026-05-05 18:33 | 60.57502 | 14.18587 | 37793 ft | 413 kts | 268° |
| 2026-05-05 18:34 | 60.57322 | 14.06885 | 37794 ft | 414 kts | 268° |
| 2026-05-05 18:34 | 60.57134 | 13.95142 | 37794 ft | 415 kts | 268° |
| 2026-05-05 18:35 | 60.56934 | 13.83464 | 37793 ft | 414 kts | 268° |
| 2026-05-05 18:35 | 60.56722 | 13.71781 | 37791 ft | 413 kts | 268° |
| 2026-05-05 18:36 | 60.56502 | 13.60088 | 37789 ft | 413 kts | 268° |
| 2026-05-05 18:36 | 60.56271 | 13.48426 | 37787 ft | 413 kts | 268° |
| 2026-05-05 18:37 | 60.56030 | 13.36799 | 37790 ft | 413 kts | 268° |
| 2026-05-05 18:37 | 60.55778 | 13.25137 | 37794 ft | 413 kts | 267° |
| 2026-05-05 18:38 | 60.55517 | 13.13528 | 37799 ft | 411 kts | 267° |
| 2026-05-05 18:38 | 60.55249 | 13.01950 | 37800 ft | 412 kts | 267° |
| 2026-05-05 18:39 | 60.54969 | 12.90318 | 37796 ft | 413 kts | 267° |
| 2026-05-05 18:39 | 60.54678 | 12.78643 | 37789 ft | 412 kts | 267° |
| 2026-05-05 18:40 | 60.54377 | 12.67028 | 37788 ft | 414 kts | 267° |
| 2026-05-05 18:40 | 60.54065 | 12.55408 | 37790 ft | 414 kts | 267° |
| 2026-05-05 18:41 | 60.53744 | 12.43757 | 37787 ft | 414 kts | 267° |
| 2026-05-05 18:41 | 60.53413 | 12.32127 | 37799 ft | 414 kts | 266° |
| 2026-05-05 18:42 | 60.53072 | 12.20531 | 37800 ft | 414 kts | 266° |
| 2026-05-05 18:42 | 60.52745 | 12.09733 | 37814 ft | 413 kts | 266° |
| 2026-05-05 18:43 | 60.52384 | 11.98068 | 37817 ft | 414 kts | 266° |
| 2026-05-05 18:43 | 60.52012 | 11.86425 | 37818 ft | 413 kts | 266° |
| 2026-05-05 18:44 | 60.51632 | 11.74816 | 37808 ft | 413 kts | 266° |
| 2026-05-05 18:44 | 60.51237 | 11.63133 | 37805 ft | 413 kts | 266° |
| 2026-05-05 18:45 | 60.50835 | 11.51510 | 37818 ft | 414 kts | 266° |
| 2026-05-05 18:45 | 60.50422 | 11.39865 | 37821 ft | 414 kts | 266° |
| 2026-05-05 18:46 | 60.49999 | 11.28212 | 37819 ft | 414 kts | 265° |
| 2026-05-05 18:46 | 60.49565 | 11.16590 | 37814 ft | 413 kts | 265° |
| 2026-05-05 18:47 | 60.49122 | 11.04976 | 37815 ft | 414 kts | 265° |
| 2026-05-05 18:47 | 60.48672 | 10.93374 | 37816 ft | 414 kts | 266° |
| 2026-05-05 18:48 | 60.48208 | 10.81737 | 37814 ft | 413 kts | 265° |
| 2026-05-05 18:48 | 60.47736 | 10.70163 | 37811 ft | 414 kts | 265° |
| 2026-05-05 18:49 | 60.47256 | 10.58615 | 37810 ft | 412 kts | 265° |
| 2026-05-05 18:49 | 60.46766 | 10.47096 | 37805 ft | 412 kts | 265° |
| 2026-05-05 18:50 | 60.46264 | 10.35528 | 37829 ft | 413 kts | 265° |
| 2026-05-05 18:50 | 60.45753 | 10.23967 | 37823 ft | 411 kts | 265° |
| 2026-05-05 18:51 | 60.45234 | 10.12491 | 37841 ft | 411 kts | 265° |
| 2026-05-05 18:51 | 60.44704 | 10.00972 | 37824 ft | 411 kts | 265° |
| 2026-05-05 18:52 | 60.44169 | 9.89502 | 37802 ft | 411 kts | 265° |
| 2026-05-05 18:52 | 60.43619 | 9.78031 | 37783 ft | 411 kts | 265° |
| 2026-05-05 18:53 | 60.43063 | 9.66561 | 37756 ft | 411 kts | 265° |
| 2026-05-05 18:53 | 60.42494 | 9.55042 | 37749 ft | 410 kts | 265° |
| 2026-05-05 18:54 | 60.41916 | 9.43605 | 37758 ft | 411 kts | 265° |
| 2026-05-05 18:54 | 60.41329 | 9.32155 | 37771 ft | 411 kts | 264° |
| 2026-05-05 18:55 | 60.40725 | 9.20602 | 37785 ft | 411 kts | 264° |
| 2026-05-05 18:55 | 60.40118 | 9.09161 | 37805 ft | 411 kts | 264° |
| 2026-05-05 18:56 | 60.39499 | 8.97665 | 37674 ft | 411 kts | 264° |
| 2026-05-05 18:56 | 60.39189 | 8.91960 | 37473 ft | 408 kts | 264° |
| 2026-05-05 18:56 | 60.38877 | 8.86295 | 37306 ft | 405 kts | 264° |
| 2026-05-05 18:57 | 60.38564 | 8.80637 | 37077 ft | 401 kts | 264° |
| 2026-05-05 18:57 | 60.38253 | 8.75082 | 36788 ft | 397 kts | 264° |
| 2026-05-05 18:57 | 60.37945 | 8.69578 | 36298 ft | 396 kts | 264° |
| 2026-05-05 18:57 | 60.37631 | 8.64071 | 35727 ft | 397 kts | 264° |
| 2026-05-05 18:58 | 60.37312 | 8.58544 | 35061 ft | 399 kts | 264° |
| 2026-05-05 18:58 | 60.36994 | 8.53001 | 34391 ft | 401 kts | 264° |
| 2026-05-05 18:58 | 60.36671 | 8.47408 | 33723 ft | 400 kts | 264° |
| 2026-05-05 18:58 | 60.36349 | 8.41904 | 33351 ft | 391 kts | 264° |
| 2026-05-05 18:59 | 60.36033 | 8.36536 | 32890 ft | 384 kts | 264° |
| 2026-05-05 18:59 | 60.35719 | 8.31252 | 32460 ft | 379 kts | 264° |
| 2026-05-05 18:59 | 60.35416 | 8.26185 | 32030 ft | 373 kts | 264° |
| 2026-05-05 18:59 | 60.35110 | 8.21046 | 31523 ft | 369 kts | 263° |
| 2026-05-05 19:00 | 60.34802 | 8.15950 | 31057 ft | 363 kts | 264° |
| 2026-05-05 19:00 | 60.34498 | 8.10957 | 30584 ft | 356 kts | 264° |
| 2026-05-05 19:00 | 60.34194 | 8.05991 | 30130 ft | 349 kts | 264° |
| 2026-05-05 19:00 | 60.33901 | 8.01201 | 29678 ft | 343 kts | 264° |
| 2026-05-05 19:01 | 60.33609 | 7.96486 | 29237 ft | 337 kts | 264° |
| 2026-05-05 19:01 | 60.33321 | 7.91865 | 28811 ft | 331 kts | 264° |
| 2026-05-05 19:01 | 60.33036 | 7.87313 | 28387 ft | 325 kts | 264° |
| 2026-05-05 19:01 | 60.32753 | 7.82797 | 27979 ft | 319 kts | 264° |
| 2026-05-05 19:02 | 60.32475 | 7.78391 | 27566 ft | 314 kts | 264° |
| 2026-05-05 19:02 | 60.32196 | 7.74035 | 27159 ft | 309 kts | 264° |
| 2026-05-05 19:02 | 60.31925 | 7.69799 | 26779 ft | 303 kts | 264° |
| 2026-05-05 19:02 | 60.31657 | 7.65617 | 26391 ft | 299 kts | 264° |
| 2026-05-05 19:03 | 60.31389 | 7.61486 | 26013 ft | 294 kts | 265° |
| 2026-05-05 19:03 | 60.31123 | 7.57414 | 25625 ft | 289 kts | 265° |
| 2026-05-05 19:03 | 60.30864 | 7.53420 | 25271 ft | 285 kts | 264° |
| 2026-05-05 19:03 | 60.30605 | 7.49458 | 24882 ft | 281 kts | 264° |
| 2026-05-05 19:04 | 60.30346 | 7.45566 | 24543 ft | 278 kts | 265° |
| 2026-05-05 19:04 | 60.30093 | 7.41727 | 24180 ft | 275 kts | 265° |
| 2026-05-05 19:04 | 60.29841 | 7.37941 | 23840 ft | 272 kts | 265° |
| 2026-05-05 19:04 | 60.29590 | 7.34192 | 23471 ft | 270 kts | 264° |
| 2026-05-05 19:05 | 60.29342 | 7.30478 | 23141 ft | 269 kts | 264° |
| 2026-05-05 19:05 | 60.29112 | 7.27060 | 22843 ft | 269 kts | 264° |
| 2026-05-05 19:05 | 60.28878 | 7.23598 | 22529 ft | 269 kts | 264° |
| 2026-05-05 19:05 | 60.28636 | 7.20015 | 22202 ft | 271 kts | 264° |
| 2026-05-05 19:06 | 60.28379 | 7.16261 | 21885 ft | 271 kts | 265° |
| 2026-05-05 19:06 | 60.28121 | 7.12490 | 21561 ft | 270 kts | 265° |
| 2026-05-05 19:06 | 60.27863 | 7.08741 | 21259 ft | 270 kts | 265° |
| 2026-05-05 19:06 | 60.27604 | 7.04987 | 20933 ft | 271 kts | 265° |
| 2026-05-05 19:07 | 60.27344 | 7.01223 | 20581 ft | 271 kts | 265° |
| 2026-05-05 19:07 | 60.27168 | 6.98701 | 20327 ft | 272 kts | 265° |
| 2026-05-05 19:07 | 60.26816 | 6.93674 | 19775 ft | 273 kts | 265° |
| 2026-05-05 19:07 | 60.26550 | 6.89892 | 19378 ft | 273 kts | 265° |
| 2026-05-05 19:08 | 60.26284 | 6.86089 | 18937 ft | 275 kts | 265° |
| 2026-05-05 19:08 | 60.26015 | 6.82271 | 18496 ft | 277 kts | 265° |
| 2026-05-05 19:08 | 60.25740 | 6.78429 | 18055 ft | 278 kts | 265° |
| 2026-05-05 19:08 | 60.25464 | 6.74571 | 17640 ft | 279 kts | 265° |
| 2026-05-05 19:09 | 60.25186 | 6.70713 | 17232 ft | 279 kts | 265° |
| 2026-05-05 19:09 | 60.24906 | 6.66845 | 16824 ft | 280 kts | 265° |
| 2026-05-05 19:09 | 60.24627 | 6.62986 | 16413 ft | 280 kts | 265° |
| 2026-05-05 19:09 | 60.24367 | 6.59096 | 15986 ft | 281 kts | 267° |
| 2026-05-05 19:10 | 60.24218 | 6.55175 | 15584 ft | 280 kts | 270° |
| 2026-05-05 19:10 | 60.24107 | 6.51265 | 15231 ft | 279 kts | 270° |
| 2026-05-05 19:10 | 60.23997 | 6.47366 | 14849 ft | 279 kts | 270° |
| 2026-05-05 19:10 | 60.23887 | 6.43480 | 14455 ft | 280 kts | 270° |
| 2026-05-05 19:11 | 60.23774 | 6.39530 | 14040 ft | 281 kts | 270° |
| 2026-05-05 19:11 | 60.23662 | 6.35623 | 13636 ft | 281 kts | 270° |
| 2026-05-05 19:11 | 60.23551 | 6.31836 | 13247 ft | 281 kts | 269° |
| 2026-05-05 19:11 | 60.23436 | 6.27915 | 12842 ft | 281 kts | 269° |
| 2026-05-05 19:12 | 60.23319 | 6.23989 | 12440 ft | 280 kts | 269° |
| 2026-05-05 19:12 | 60.23202 | 6.20090 | 12059 ft | 280 kts | 269° |
| 2026-05-05 19:12 | 60.23084 | 6.16200 | 11682 ft | 279 kts | 269° |
| 2026-05-05 19:12 | 60.22966 | 6.12306 | 11304 ft | 278 kts | 269° |
| 2026-05-05 19:13 | 60.22846 | 6.08452 | 10930 ft | 276 kts | 269° |
| 2026-05-05 19:13 | 60.22727 | 6.04620 | 10558 ft | 275 kts | 269° |
| 2026-05-05 19:13 | 60.22607 | 6.00816 | 10191 ft | 273 kts | 269° |
| 2026-05-05 19:13 | 60.22487 | 5.97042 | 9945 ft | 267 kts | 269° |
| 2026-05-05 19:14 | 60.22366 | 5.93366 | 9679 ft | 263 kts | 269° |
| 2026-05-05 19:14 | 60.22249 | 5.89702 | 9304 ft | 262 kts | 269° |
| 2026-05-05 19:14 | 60.22034 | 5.86027 | 8926 ft | 263 kts | 259° |
| 2026-05-05 19:14 | 60.21410 | 5.82573 | 8568 ft | 264 kts | 246° |
| 2026-05-05 19:15 | 60.20514 | 5.79334 | 8244 ft | 263 kts | 243° |
| 2026-05-05 19:15 | 60.19603 | 5.76231 | 8155 ft | 256 kts | 243° |
| 2026-05-05 19:15 | 60.18626 | 5.73300 | 7978 ft | 253 kts | 228° |
| 2026-05-05 19:15 | 60.17105 | 5.71700 | 7865 ft | 250 kts | 190° |
| 2026-05-05 19:16 | 60.15386 | 5.72091 | 7898 ft | 254 kts | 161° |
| 2026-05-05 19:16 | 60.13728 | 5.73401 | 7930 ft | 254 kts | 160° |
| 2026-05-05 19:16 | 60.12036 | 5.74368 | 7956 ft | 253 kts | 174° |
| 2026-05-05 19:16 | 60.10288 | 5.74609 | 7976 ft | 253 kts | 181° |
| 2026-05-05 19:17 | 60.08537 | 5.74623 | 7982 ft | 252 kts | 182° |
| 2026-05-05 19:17 | 60.06797 | 5.74409 | 7983 ft | 250 kts | 193° |
| 2026-05-05 19:17 | 60.05124 | 5.73518 | 7988 ft | 249 kts | 202° |
| 2026-05-05 19:17 | 60.03502 | 5.72336 | 7986 ft | 249 kts | 204° |
| 2026-05-05 19:18 | 60.01887 | 5.71056 | 7982 ft | 248 kts | 210° |
| 2026-05-05 19:18 | 60.00436 | 5.69287 | 7982 ft | 245 kts | 221° |
| 2026-05-05 19:18 | 59.99125 | 5.67150 | 7979 ft | 244 kts | 224° |
| 2026-05-05 19:18 | 59.97838 | 5.64951 | 7978 ft | 244 kts | 225° |
| 2026-05-05 19:19 | 59.96690 | 5.62506 | 7876 ft | 242 kts | 238° |
| 2026-05-05 19:19 | 59.95815 | 5.59666 | 7535 ft | 240 kts | 245° |
| 2026-05-05 19:19 | 59.95072 | 5.56707 | 7200 ft | 238 kts | 255° |
| 2026-05-05 19:19 | 59.95017 | 5.53504 | 6862 ft | 230 kts | 290° |
| 2026-05-05 19:20 | 59.95815 | 5.50858 | 6536 ft | 225 kts | 319° |
| 2026-05-05 19:20 | 59.97160 | 5.49376 | 6218 ft | 223 kts | 343° |
| 2026-05-05 19:20 | 59.98634 | 5.48513 | 5949 ft | 221 kts | 343° |
| 2026-05-05 19:20 | 60.00092 | 5.47637 | 5684 ft | 219 kts | 343° |
| 2026-05-05 19:21 | 60.01536 | 5.46752 | 5421 ft | 218 kts | 342° |
| 2026-05-05 19:21 | 60.02971 | 5.45863 | 5157 ft | 216 kts | 342° |
| 2026-05-05 19:21 | 60.04406 | 5.44969 | 4882 ft | 216 kts | 342° |
| 2026-05-05 19:21 | 60.05824 | 5.44084 | 4617 ft | 214 kts | 342° |
| 2026-05-05 19:22 | 60.07235 | 5.43201 | 4349 ft | 213 kts | 343° |
| 2026-05-05 19:22 | 60.08624 | 5.42223 | 4066 ft | 213 kts | 332° |
| 2026-05-05 19:22 | 60.09646 | 5.40152 | 3771 ft | 215 kts | 298° |
| 2026-05-05 19:22 | 60.10028 | 5.37284 | 3542 ft | 214 kts | 282° |
| 2026-05-05 19:23 | 60.10273 | 5.34383 | 3345 ft | 210 kts | 282° |
| 2026-05-05 19:23 | 60.10527 | 5.31521 | 3143 ft | 206 kts | 284° |
| 2026-05-05 19:23 | 60.11127 | 5.29067 | 2996 ft | 195 kts | 319° |
| 2026-05-05 19:23 | 60.12275 | 5.27733 | 2990 ft | 191 kts | 340° |
| 2026-05-05 19:24 | 60.13509 | 5.27083 | 2975 ft | 178 kts | 348° |
| 2026-05-05 19:24 | 60.14716 | 5.26674 | 2894 ft | 177 kts | 350° |
| 2026-05-05 19:24 | 60.15924 | 5.26300 | 2664 ft | 177 kts | 350° |
| 2026-05-05 19:24 | 60.17114 | 5.25920 | 2505 ft | 169 kts | 349° |
| 2026-05-05 19:25 | 60.18263 | 5.25540 | 2254 ft | 166 kts | 349° |
| 2026-05-05 19:25 | 60.19377 | 5.25164 | 1997 ft | 159 kts | 349° |
| 2026-05-05 19:25 | 60.20416 | 5.24814 | 1778 ft | 145 kts | 349° |
| 2026-05-05 19:25 | 60.21362 | 5.24496 | 1568 ft | 132 kts | 349° |
| 2026-05-05 19:26 | 60.22223 | 5.24207 | 1375 ft | 123 kts | 348° |
| 2026-05-05 19:26 | 60.23060 | 5.23926 | 1237 ft | 123 kts | 348° |
| 2026-05-05 19:26 | 60.23896 | 5.23647 | 1076 ft | 122 kts | 348° |
| 2026-05-05 19:26 | 60.24734 | 5.23364 | 905 ft | 122 kts | 348° |
| 2026-05-05 19:27 | 60.25565 | 5.23082 | 733 ft | 121 kts | 348° |
| 2026-05-05 19:27 | 60.26394 | 5.22808 | 573 ft | 121 kts | 347° |
| 2026-05-05 19:27 | 60.27221 | 5.22529 | 405 ft | 121 kts | 347° |
| 2026-05-05 19:27 | 60.28049 | 5.22250 | 232 ft | 120 kts | 347° |
| 2026-05-05 19:28 | 60.28835 | 5.21980 | 165 ft | 103 kts | 350° |
| 2026-05-05 19:28 | 60.29373 | 5.21802 | 160 ft | 52 kts | 351° |
| 2026-05-05 19:28 | 60.29602 | 5.21727 | 158 ft | 21 kts | 350° |
| 2026-05-05 19:28 | 60.29681 | 5.21712 | 158 ft | 9 kts | 16° |
| 2026-05-05 19:29 | 60.29708 | 5.21796 | 158 ft | 8 kts | 82° |
| 2026-05-05 19:29 | 60.29714 | 5.21886 | 157 ft | 3 kts | 82° |
| 2026-05-05 19:29 | 60.29716 | 5.21908 | 157 ft | 0 kts | 81° |
| 2026-05-05 19:29 | 60.29716 | 5.21915 | 158 ft | 2 kts | 81° |
| 2026-05-05 19:30 | 60.29718 | 5.21960 | 158 ft | 4 kts | 97° |
| 2026-05-05 19:30 | 60.29689 | 5.22015 | 158 ft | 7 kts | 160° |
| 2026-05-05 19:30 | 60.29631 | 5.22037 | 159 ft | 11 kts | 171° |
| 2026-05-05 19:30 | 60.29535 | 5.22070 | 160 ft | 17 kts | 170° |
| 2026-05-05 19:31 | 60.29411 | 5.22112 | 162 ft | 19 kts | 170° |
| 2026-05-05 19:31 | 60.29272 | 5.22159 | 164 ft | 21 kts | 170° |
| 2026-05-05 19:31 | 60.29127 | 5.22208 | 167 ft | 21 kts | 170° |
| 2026-05-05 19:31 | 60.29000 | 5.22251 | 168 ft | 15 kts | 171° |
| 2026-05-05 19:32 | 60.28936 | 5.22305 | 169 ft | 9 kts | 108° |
| 2026-05-05 19:32 | 60.28946 | 5.22413 | 169 ft | 8 kts | 92° |
| 2026-05-05 19:32 | 60.28935 | 5.22500 | 170 ft | 5 kts | 107° |
| 2026-05-05 19:32 | 60.28928 | 5.22546 | 170 ft | 2 kts | 108° |
| 2026-05-05 19:33 | 60.28927 | 5.22554 | 171 ft | 0 kts | 108° |